KASE/ASE METAR and TAF weather

Enter ICAO airport designator
Station Type Date Time Source
KASE METAR 2020/07/10 19:53 UTC NOAA

KASE 101953Z 22012G18KT 10SM CLR 30/M09 A3039 RMK AO2 SLP149 T03001094


Station Type Date Time Source
KASE Decoded METAR 2020/07/10 19:53 UTC NOAA

ASPEN-PITKIN COUNTY AIRPORT, CO, United States (KASE) 39-14N 106-52W 2354M
Jul 10, 2020 - 03:53 PM EDT / 2020.07.10 1953 UTC
Wind: from the SW (220 degrees) at 14 MPH (12 KT) gusting to 21 MPH (18 KT):0
Visibility: 10 mile(s):0
Sky conditions: clear
Temperature: 86.0 F (30.0 C)
Dew Point: 15.1 F (-9.4 C)
Relative Humidity: 7%
Pressure (altimeter): 30.39 in. Hg (1029 hPa)
ob: KASE 101953Z 22012G18KT 10SM CLR 30/M09 A3039 RMK AO2 SLP149 T03001094
cycle: 20

Station Type Date Time Source
KASE TAF 2020/07/10 18:34 UTC NOAA

TAF KASE 101732Z 1018/1118 32010G17KT P6SM SKC
FM110200 25006KT P6SM FEW250
FM111200 20008KT P6SM FEW250

Example: see airport list